Time;durP1;ratioP1;P1;durP2;ratioP2;P2;SDS_P1;SDS_P2;PMS_P1;PMS_P2;Temp;Humidity;BMP_temperature;BMP_pressure;BME280_temperature;BME280_humidity;BME280_pressure;Samples;Min_cycle;Max_cycle;Signal;HPM_P1;HPM_P2
2024/04/17 00:00:43;;;;;;;6.40;1.90;;;12.90;95.20;;;;;;5390429;26;20529;-30
2024/04/17 00:03:10;;;;;;;7.63;2.27;;;12.90;95.10;;;;;;5357162;26;20464;-29
2024/04/17 00:05:38;;;;;;;4.43;2.20;;;12.90;95.10;;;;;;5394564;26;20512;-32
2024/04/17 00:08:05;;;;;;;3.10;1.90;;;12.90;95.10;;;;;;5391493;26;20542;-30
2024/04/17 00:10:31;;;;;;;5.53;1.93;;;12.90;95.10;;;;;;5381507;26;20472;-29
2024/04/17 00:12:57;;;;;;;3.23;2.00;;;12.90;95.10;;;;;;5380687;26;20593;-29
2024/04/17 00:15:25;;;;;;;2.43;2.00;;;12.90;95.10;;;;;;5368302;26;20570;-30
2024/04/17 00:17:51;;;;;;;8.00;2.40;;;12.90;95.10;;;;;;5379101;26;20476;-30
2024/04/17 00:20:17;;;;;;;5.97;2.60;;;12.90;95.10;;;;;;5389022;26;20601;-29
2024/04/17 00:22:46;;;;;;;5.30;2.50;;;12.80;95.10;;;;;;5393534;26;20467;-29
2024/04/17 00:25:12;;;;;;;3.70;1.50;;;12.80;95.10;;;;;;5390967;26;20474;-30
2024/04/17 00:27:38;;;;;;;3.20;2.20;;;12.80;95.00;;;;;;5375838;26;21072;-29
2024/04/17 00:30:04;;;;;;;4.37;2.10;;;12.90;95.10;;;;;;5381116;26;20524;-30
2024/04/17 00:32:30;;;;;;;7.23;2.80;;;12.80;95.00;;;;;;5349093;26;20541;-30
2024/04/17 00:34:56;;;;;;;6.07;2.50;;;12.80;95.00;;;;;;5373062;26;21181;-29
2024/04/17 00:37:26;;;;;;;3.63;2.23;;;12.80;95.00;;;;;;5382819;26;20471;-29
2024/04/17 00:39:52;;;;;;;6.00;2.30;;;12.80;95.00;;;;;;5372196;26;20464;-30
2024/04/17 00:42:18;;;;;;;5.37;2.03;;;12.80;95.00;;;;;;5382265;26;21223;-30
2024/04/17 00:44:44;;;;;;;7.03;2.60;;;12.80;95.00;;;;;;5388297;26;20517;-30
2024/04/17 00:47:11;;;;;;;5.23;3.07;;;12.80;95.00;;;;;;5382545;26;20542;-29
2024/04/17 00:49:37;;;;;;;4.43;2.03;;;12.80;95.00;;;;;;5384356;26;20484;-30
2024/04/17 00:52:04;;;;;;;3.90;2.23;;;12.80;95.00;;;;;;5387433;26;20520;-29
2024/04/17 00:54:32;;;;;;;8.43;2.50;;;12.80;95.00;;;;;;5386846;26;20464;-30
2024/04/17 00:57:02;;;;;;;5.63;2.67;;;12.80;95.00;;;;;;5387659;26;20579;-30
2024/04/17 00:59:28;;;;;;;6.60;3.03;;;12.80;95.00;;;;;;5355736;26;20448;-30
2024/04/17 01:01:55;;;;;;;4.47;3.10;;;12.80;95.00;;;;;;5373646;26;20548;-30
2024/04/17 01:04:23;;;;;;;7.53;2.80;;;12.70;94.90;;;;;;5358043;26;20537;-29
2024/04/17 01:06:50;;;;;;;7.27;3.43;;;12.70;94.90;;;;;;5370531;26;20475;-29
2024/04/17 01:09:18;;;;;;;8.43;3.80;;;12.70;94.90;;;;;;5353606;26;20589;-30
2024/04/17 01:11:44;;;;;;;7.67;3.70;;;12.70;94.90;;;;;;5353072;26;20471;-30
2024/04/17 01:14:10;;;;;;;10.93;3.93;;;12.70;94.90;;;;;;5375758;26;21395;-30
2024/04/17 01:16:40;;;;;;;11.60;5.27;;;12.70;94.90;;;;;;5378834;26;20509;-29
2024/04/17 01:19:09;;;;;;;12.63;5.70;;;12.70;94.80;;;;;;5374356;26;20474;-30
2024/04/17 01:21:36;;;;;;;11.67;6.13;;;12.70;94.80;;;;;;5390199;26;20463;-29
2024/04/17 01:24:04;;;;;;;13.70;6.00;;;12.70;94.80;;;;;;5371245;26;20524;-29
2024/04/17 01:26:30;;;;;;;15.83;6.00;;;12.70;94.80;;;;;;5380695;26;20988;-30
2024/04/17 01:28:58;;;;;;;10.43;5.50;;;12.60;94.80;;;;;;5393071;26;20471;-30
2024/04/17 01:31:24;;;;;;;13.80;5.97;;;12.60;94.70;;;;;;5320589;26;20527;-29
2024/04/17 01:33:49;;;;;;;12.00;6.17;;;12.60;94.70;;;;;;5368654;26;20482;-28
2024/04/17 01:36:16;;;;;;;15.00;6.50;;;12.60;94.70;;;;;;5380563;26;20933;-29
2024/04/17 01:38:42;;;;;;;14.03;6.27;;;12.60;94.70;;;;;;5389575;26;20677;-30
2024/04/17 01:41:08;;;;;;;12.20;5.40;;;12.60;94.70;;;;;;5388051;26;20531;-30
2024/04/17 01:43:34;;;;;;;15.87;5.50;;;12.60;94.70;;;;;;5390215;26;20532;-30
2024/04/17 01:46:02;;;;;;;15.00;7.33;;;12.60;94.70;;;;;;5352400;26;20515;-30
2024/04/17 01:48:28;;;;;;;15.93;6.47;;;12.60;94.70;;;;;;5381421;26;20486;-29
2024/04/17 01:50:54;;;;;;;16.57;6.67;;;12.50;94.60;;;;;;5373708;26;20917;-29
2024/04/17 01:53:20;;;;;;;13.43;5.93;;;12.50;94.60;;;;;;5379237;26;20468;-29
2024/04/17 01:55:49;;;;;;;13.00;5.63;;;12.60;94.70;;;;;;5380160;26;20526;-29
2024/04/17 01:58:15;;;;;;;12.77;6.33;;;12.50;94.60;;;;;;5378735;26;20543;-30
2024/04/17 02:00:43;;;;;;;13.20;5.63;;;12.50;94.60;;;;;;5390434;26;20479;-30
2024/04/17 02:03:11;;;;;;;12.50;4.97;;;12.50;94.60;;;;;;5388327;26;20558;-29
2024/04/17 02:05:37;;;;;;;9.30;4.73;;;12.50;94.60;;;;;;5380160;26;20974;-29
2024/04/17 02:08:04;;;;;;;10.80;4.67;;;12.50;94.60;;;;;;5371951;26;20509;-30
2024/04/17 02:10:30;;;;;;;14.43;4.40;;;12.50;94.60;;;;;;5363769;26;21149;-29
2024/04/17 02:12:59;;;;;;;10.57;4.27;;;12.50;94.50;;;;;;5342388;26;20577;-29
2024/04/17 02:15:25;;;;;;;10.27;4.83;;;12.40;94.50;;;;;;5369248;26;20954;-30
2024/04/17 02:17:51;;;;;;;10.30;5.10;;;12.50;94.50;;;;;;5386972;26;20962;-30
2024/04/17 02:20:19;;;;;;;8.43;4.03;;;12.40;94.40;;;;;;5385445;26;21477;-29
2024/04/17 02:22:49;;;;;;;11.20;4.73;;;12.40;94.40;;;;;;5383646;26;20475;-30
2024/04/17 02:25:15;;;;;;;10.17;4.20;;;12.40;94.40;;;;;;5384501;26;20467;-30
2024/04/17 02:27:41;;;;;;;12.77;4.30;;;12.40;94.40;;;;;;5390648;26;20969;-29
2024/04/17 02:30:08;;;;;;;11.20;3.73;;;12.40;94.40;;;;;;5372443;26;20480;-29
2024/04/17 02:32:34;;;;;;;6.40;3.30;;;12.40;94.40;;;;;;5354104;26;20440;-29
2024/04/17 02:35:00;;;;;;;8.87;4.20;;;12.40;94.40;;;;;;5385210;26;20455;-30
2024/04/17 02:37:25;;;;;;;9.73;4.30;;;12.30;94.30;;;;;;5388965;26;20577;-29
2024/04/17 02:39:51;;;;;;;7.33;4.30;;;12.40;94.30;;;;;;5359380;26;21044;-30
2024/04/17 02:42:17;;;;;;;6.70;4.03;;;12.30;94.30;;;;;;5391014;26;20234;-29
2024/04/17 02:44:45;;;;;;;10.87;3.77;;;12.40;94.30;;;;;;5394280;26;20512;-30
2024/04/17 02:47:11;;;;;;;5.77;3.30;;;12.30;94.20;;;;;;5376828;26;20558;-30
2024/04/17 02:49:37;;;;;;;7.27;3.60;;;12.30;94.50;;;;;;5392950;26;20531;-30
2024/04/17 02:52:04;;;;;;;7.63;4.67;;;12.30;94.20;;;;;;5381471;26;20753;-29
2024/04/17 02:54:33;;;;;;;5.30;2.90;;;12.30;94.20;;;;;;5379927;26;20463;-30
2024/04/17 02:56:59;;;;;;;6.83;3.50;;;12.30;94.20;;;;;;5378654;26;21031;-30
2024/04/17 02:59:25;;;;;;;5.43;3.07;;;12.30;94.10;;;;;;5353553;26;20476;-31
2024/04/17 03:01:51;;;;;;;7.97;3.70;;;12.20;94.00;;;;;;5389545;26;20235;-30
2024/04/17 03:04:17;;;;;;;5.80;3.30;;;12.30;94.10;;;;;;5379761;26;20479;-29
2024/04/17 03:06:43;;;;;;;7.00;3.47;;;12.20;94.10;;;;;;5381997;26;20607;-29
2024/04/17 03:09:09;;;;;;;6.73;3.17;;;12.20;94.00;;;;;;5380297;26;20575;-29
2024/04/17 03:11:35;;;;;;;9.70;3.70;;;12.20;94.00;;;;;;5373874;26;20478;-29
2024/04/17 03:14:01;;;;;;;5.70;3.00;;;12.20;94.00;;;;;;5381179;26;20471;-29
2024/04/17 03:16:27;;;;;;;6.13;2.67;;;12.20;94.00;;;;;;5389802;26;20463;-30
2024/04/17 03:18:54;;;;;;;5.07;2.80;;;12.20;93.90;;;;;;5395641;26;20514;-30
2024/04/17 03:21:20;;;;;;;6.13;2.63;;;12.20;93.90;;;;;;5372011;26;20451;-29
2024/04/17 03:23:46;;;;;;;6.53;2.60;;;12.20;93.90;;;;;;5381848;26;21027;-30
2024/04/17 03:26:12;;;;;;;5.37;2.40;;;12.10;93.80;;;;;;5387527;26;20523;-30
2024/04/17 03:28:38;;;;;;;3.50;2.33;;;12.20;93.90;;;;;;5394122;26;20463;-29
2024/04/17 03:31:06;;;;;;;5.83;2.80;;;12.20;93.80;;;;;;5370361;26;20472;-29
2024/04/17 03:33:32;;;;;;;6.90;2.80;;;12.10;93.80;;;;;;5396273;26;20506;-30
2024/04/17 03:35:59;;;;;;;6.50;2.43;;;12.10;93.80;;;;;;5388392;26;20459;-29
2024/04/17 03:38:27;;;;;;;7.17;2.90;;;12.10;93.80;;;;;;5372594;26;21289;-30
2024/04/17 03:40:54;;;;;;;6.67;2.63;;;12.10;93.70;;;;;;5373450;26;20700;-28
2024/04/17 03:43:22;;;;;;;4.33;2.57;;;12.10;93.70;;;;;;5369874;26;20447;-30
2024/04/17 03:45:47;;;;;;;3.97;2.20;;;12.10;93.70;;;;;;5350680;26;20523;-29
2024/04/17 03:48:14;;;;;;;4.20;2.40;;;12.00;93.60;;;;;;5395493;26;21085;-30
2024/04/17 03:50:40;;;;;;;4.07;2.40;;;12.00;93.60;;;;;;5390462;26;20482;-28
2024/04/17 03:53:06;;;;;;;2.73;2.13;;;12.00;93.60;;;;;;5393715;26;20988;-29
2024/04/17 03:55:32;;;;;;;6.97;2.13;;;12.00;93.60;;;;;;5346368;26;20485;-28
2024/04/17 03:57:58;;;;;;;4.37;2.53;;;12.00;93.60;;;;;;5374837;26;20503;-30
2024/04/17 04:00:24;;;;;;;3.63;2.00;;;12.00;93.50;;;;;;5356701;26;20571;-30
2024/04/17 04:02:52;;;;;;;3.83;2.27;;;12.00;93.50;;;;;;5389049;26;20561;-30
2024/04/17 04:05:18;;;;;;;3.70;1.87;;;12.00;93.50;;;;;;5354659;26;20552;-29
2024/04/17 04:07:45;;;;;;;3.83;1.80;;;12.00;93.50;;;;;;5387647;26;20515;-29
2024/04/17 04:10:13;;;;;;;8.30;2.37;;;12.00;93.50;;;;;;5396089;26;21072;-29
2024/04/17 04:12:39;;;;;;;3.20;1.97;;;11.90;93.50;;;;;;5391208;26;20463;-29
2024/04/17 04:15:07;;;;;;;3.20;1.80;;;11.90;93.40;;;;;;5391478;26;20858;-29
2024/04/17 04:17:33;;;;;;;2.73;1.90;;;11.90;93.80;;;;;;5391775;26;20242;-30
2024/04/17 04:19:59;;;;;;;5.03;2.23;;;11.90;93.50;;;;;;5360702;26;20534;-30
2024/04/17 04:22:25;;;;;;;3.33;2.20;;;11.90;93.40;;;;;;5377512;26;20475;-29
2024/04/17 04:24:51;;;;;;;2.73;1.80;;;11.90;93.40;;;;;;5386488;26;21031;-29
2024/04/17 04:27:17;;;;;;;3.97;1.80;;;11.90;93.40;;;;;;5393771;26;20475;-29
2024/04/17 04:29:46;;;;;;;4.70;2.40;;;11.90;93.40;;;;;;5389249;26;20465;-29
2024/04/17 04:32:17;;;;;;;4.07;2.03;;;11.90;93.40;;;;;;5337730;26;20562;-30
2024/04/17 04:34:45;;;;;;;3.77;2.00;;;11.90;93.40;;;;;;5386742;26;20702;-29
2024/04/17 04:37:13;;;;;;;4.10;2.20;;;11.80;93.70;;;;;;5373217;26;20582;-29
2024/04/17 04:39:39;;;;;;;4.10;2.23;;;11.80;93.30;;;;;;5374279;26;20490;-29
2024/04/17 04:42:07;;;;;;;4.33;2.30;;;11.80;93.30;;;;;;5376988;26;20542;-30
2024/04/17 04:44:33;;;;;;;4.83;2.30;;;11.80;93.30;;;;;;5347278;26;20590;-29
2024/04/17 04:47:01;;;;;;;3.43;2.10;;;11.80;93.30;;;;;;5384425;26;20468;-29
2024/04/17 04:49:28;;;;;;;5.07;2.10;;;11.80;93.30;;;;;;5345353;26;20473;-29
2024/04/17 04:51:54;;;;;;;5.87;2.67;;;11.80;93.30;;;;;;5371499;26;20520;-29
2024/04/17 04:54:22;;;;;;;5.30;2.40;;;11.80;93.20;;;;;;5382686;26;20525;-29
2024/04/17 04:56:51;;;;;;;4.40;2.50;;;11.80;93.20;;;;;;5334298;26;20456;-29
2024/04/17 04:59:19;;;;;;;5.40;2.33;;;11.80;93.20;;;;;;5369877;26;20473;-30
2024/04/17 05:01:45;;;;;;;6.23;2.33;;;11.70;93.10;;;;;;5370915;26;20473;-30
2024/04/17 05:04:12;;;;;;;4.47;2.20;;;11.70;93.10;;;;;;5383019;26;20506;-29
2024/04/17 05:06:43;;;;;;;3.70;2.17;;;11.70;93.10;;;;;;5377626;26;20472;-29
2024/04/17 05:09:09;;;;;;;5.30;2.40;;;11.70;93.20;;;;;;5383153;26;20472;-31
2024/04/17 05:11:35;;;;;;;3.30;1.90;;;11.70;93.10;;;;;;5388206;26;20494;-30
2024/04/17 05:14:01;;;;;;;3.67;2.60;;;11.70;93.10;;;;;;5378531;26;20564;-29
2024/04/17 05:16:28;;;;;;;7.33;2.57;;;11.70;93.10;;;;;;5366068;26;20476;-29
2024/04/17 05:18:54;;;;;;;3.43;2.30;;;11.70;93.10;;;;;;5376034;26;20468;-30
2024/04/17 05:21:23;;;;;;;3.30;2.23;;;11.70;93.10;;;;;;5346481;26;20551;-29
2024/04/17 05:23:49;;;;;;;3.57;2.17;;;11.70;93.10;;;;;;5361266;26;20482;-29
2024/04/17 05:26:15;;;;;;;5.03;1.87;;;11.70;93.10;;;;;;5378683;26;20507;-29
2024/04/17 05:28:41;;;;;;;3.40;2.10;;;11.70;93.10;;;;;;5358589;26;20371;-30
2024/04/17 05:31:09;;;;;;;3.30;2.00;;;11.60;93.10;;;;;;5344467;26;20568;-29
2024/04/17 05:33:35;;;;;;;2.80;2.50;;;11.60;93.10;;;;;;5378274;26;21458;-29
2024/04/17 05:36:03;;;;;;;2.60;2.13;;;11.60;93.10;;;;;;5372974;26;20621;-29
2024/04/17 05:38:30;;;;;;;5.80;2.10;;;11.60;93.10;;;;;;5383253;26;20758;-29
2024/04/17 05:40:56;;;;;;;5.30;2.37;;;11.60;93.20;;;;;;5371072;26;20500;-29
2024/04/17 05:43:22;;;;;;;4.63;2.07;;;11.60;93.50;;;;;;5374213;26;21047;-30
2024/04/17 05:45:50;;;;;;;3.57;1.90;;;11.60;93.20;;;;;;5379587;26;20515;-29
2024/04/17 05:48:16;;;;;;;4.90;2.63;;;11.60;93.20;;;;;;5385450;26;20518;-30
2024/04/17 05:50:46;;;;;;;3.47;2.10;;;11.60;93.20;;;;;;5384170;26;20509;-29
2024/04/17 05:53:12;;;;;;;3.13;1.90;;;11.60;93.30;;;;;;5363799;26;20586;-29
2024/04/17 05:55:41;;;;;;;3.27;2.07;;;11.60;93.30;;;;;;5347042;26;20521;-30
2024/04/17 05:58:09;;;;;;;3.73;1.97;;;11.60;93.30;;;;;;5381266;26;20471;-30
2024/04/17 06:00:36;;;;;;;3.40;2.37;;;11.60;93.30;;;;;;5379017;26;20468;-29
2024/04/17 06:03:03;;;;;;;5.37;2.13;;;11.60;93.30;;;;;;5358749;26;20467;-29
2024/04/17 06:05:29;;;;;;;4.70;2.47;;;11.60;93.40;;;;;;5375663;26;20864;-30
2024/04/17 06:07:58;;;;;;;4.03;2.33;;;11.60;93.40;;;;;;5370352;26;20487;-30
2024/04/17 06:10:24;;;;;;;3.80;2.20;;;11.60;93.40;;;;;;5375057;26;20577;-30
2024/04/17 06:12:50;;;;;;;6.30;3.43;;;11.50;93.40;;;;;;5355450;26;20525;-30
2024/04/17 06:15:16;;;;;;;5.80;3.93;;;11.50;93.70;;;;;;5381271;26;20826;-29
2024/04/17 06:17:42;;;;;;;5.97;3.93;;;11.50;93.80;;;;;;5376634;26;20574;-30
2024/04/17 06:20:08;;;;;;;7.27;4.63;;;11.50;94.00;;;;;;5380759;26;20479;-29
2024/04/17 06:22:37;;;;;;;8.03;4.43;;;11.50;94.00;;;;;;5387751;26;20479;-29
2024/04/17 06:25:03;;;;;;;5.23;4.27;;;11.50;94.10;;;;;;5367888;26;20561;-29
2024/04/17 06:27:35;;;;;;;6.37;3.87;;;11.40;94.00;;;;;;5380941;26;20470;-29
2024/04/17 06:30:01;;;;;;;7.17;4.27;;;11.40;94.00;;;;;;5378486;26;20599;-29
2024/04/17 06:32:28;;;;;;;8.17;4.50;;;11.40;94.00;;;;;;5382874;26;20523;-29
2024/04/17 06:34:53;;;;;;;7.70;3.50;;;11.40;94.00;;;;;;5375007;26;20525;-28
2024/04/17 06:37:22;;;;;;;6.67;3.63;;;11.40;94.00;;;;;;5358014;26;21009;-29
2024/04/17 06:39:48;;;;;;;6.67;3.63;;;11.40;94.00;;;;;;5387583;26;21526;-29
2024/04/17 06:42:14;;;;;;;5.73;3.87;;;11.40;94.10;;;;;;5391235;26;20456;-29
2024/04/17 06:44:40;;;;;;;5.70;3.27;;;11.40;94.40;;;;;;5379731;26;20530;-28
2024/04/17 06:47:06;;;;;;;6.53;3.30;;;11.50;94.10;;;;;;5332213;26;20582;-30
2024/04/17 06:49:35;;;;;;;5.40;3.57;;;11.40;94.00;;;;;;5382357;26;20515;-29
2024/04/17 06:52:02;;;;;;;8.73;3.57;;;11.40;94.00;;;;;;5392090;26;20491;-29
2024/04/17 06:54:28;;;;;;;5.73;3.70;;;11.40;94.00;;;;;;5364682;26;20457;-29
2024/04/17 06:56:54;;;;;;;7.63;3.30;;;11.50;94.10;;;;;;5340794;26;20540;-29
2024/04/17 06:59:20;;;;;;;5.80;3.30;;;11.40;94.00;;;;;;5375174;26;20459;-29
2024/04/17 07:01:49;;;;;;;6.20;3.37;;;11.40;94.10;;;;;;5379054;26;20605;-29
2024/04/17 07:04:15;;;;;;;4.60;3.10;;;11.40;94.10;;;;;;5376360;26;20853;-27
2024/04/17 07:06:41;;;;;;;6.13;3.37;;;11.50;94.10;;;;;;5385369;26;20606;-28
2024/04/17 07:09:07;;;;;;;9.23;3.23;;;11.40;94.10;;;;;;5383030;26;20546;-29
2024/04/17 07:11:36;;;;;;;6.13;3.43;;;11.50;94.10;;;;;;5383652;26;20469;-29
2024/04/17 07:14:02;;;;;;;5.20;3.10;;;11.40;94.10;;;;;;5386134;26;20472;-28
2024/04/17 07:16:31;;;;;;;6.30;2.73;;;11.40;94.10;;;;;;5357374;26;20693;-28
2024/04/17 07:18:59;;;;;;;7.40;2.50;;;11.50;94.20;;;;;;5351350;26;20461;-29
2024/04/17 07:21:25;;;;;;;4.20;2.70;;;11.50;94.20;;;;;;5351489;26;20527;-29
2024/04/17 07:23:54;;;;;;;6.37;2.90;;;11.50;94.20;;;;;;5385692;26;21117;-29
2024/04/17 07:26:20;;;;;;;2.80;2.60;;;11.40;94.10;;;;;;5363376;26;20504;-29
2024/04/17 07:28:46;;;;;;;3.93;3.27;;;11.40;94.20;;;;;;5379757;26;21383;-29
2024/04/17 07:31:12;;;;;;;4.40;3.10;;;11.40;94.20;;;;;;5358350;26;20568;-30
2024/04/17 07:33:38;;;;;;;4.63;2.90;;;11.40;94.20;;;;;;5375080;21;20507;-66
2024/04/17 07:36:05;;;;;;;5.33;2.90;;;11.40;94.20;;;;;;5359733;26;20635;-67
2024/04/17 07:38:33;;;;;;;4.83;3.00;;;11.50;94.30;;;;;;5276134;26;20547;-67
2024/04/17 07:41:05;;;;;;;4.10;2.53;;;11.40;94.20;;;;;;5314517;26;20470;-67
2024/04/17 07:43:34;;;;;;;4.80;2.93;;;11.40;94.30;;;;;;5325737;26;20518;-66
2024/04/17 07:46:03;;;;;;;9.23;3.80;;;11.40;94.30;;;;;;5304184;26;20517;-66
2024/04/17 07:48:30;;;;;;;6.13;3.03;;;11.40;94.30;;;;;;5301957;26;20524;-67
2024/04/17 07:50:58;;;;;;;4.90;2.90;;;11.40;94.30;;;;;;5307159;26;20507;-67
2024/04/17 07:53:27;;;;;;;3.23;2.93;;;11.40;94.40;;;;;;5268234;26;20450;-67
2024/04/17 07:55:57;;;;;;;3.20;2.90;;;11.40;94.40;;;;;;5297594;26;20606;-67
2024/04/17 07:58:27;;;;;;;5.23;3.10;;;11.40;94.40;;;;;;5328021;26;20593;-67
2024/04/17 08:00:57;;;;;;;3.00;2.73;;;11.40;94.40;;;;;;5294732;26;20507;-67
2024/04/17 08:03:23;;;;;;;4.23;2.93;;;11.40;94.40;;;;;;5326725;26;21358;-67
2024/04/17 08:05:51;;;;;;;4.40;2.80;;;11.40;94.40;;;;;;5296271;26;20466;-67
2024/04/17 08:08:20;;;;;;;6.33;3.00;;;11.40;94.50;;;;;;5340258;26;20470;-67
2024/04/17 08:10:50;;;;;;;3.00;2.67;;;11.40;94.50;;;;;;5241642;26;21288;-67
2024/04/17 08:13:16;;;;;;;3.50;2.80;;;11.40;94.50;;;;;;5331468;26;20540;-67
2024/04/17 08:15:52;;;;;;;6.20;2.60;;;11.40;94.50;;;;;;5253415;26;21328;-67
2024/04/17 08:18:21;;;;;;;3.73;2.40;;;11.40;94.50;;;;;;5330774;26;21214;-67
2024/04/17 08:20:47;;;;;;;4.00;2.43;;;11.40;94.50;;;;;;5276195;26;20547;-67
2024/04/17 08:23:13;;;;;;;4.10;2.77;;;11.40;94.50;;;;;;5297849;26;20496;-67
2024/04/17 08:25:40;;;;;;;2.80;1.87;;;11.40;94.50;;;;;;5302958;26;20486;-67
2024/04/17 08:28:07;;;;;;;5.70;2.30;;;11.40;94.50;;;;;;5344382;26;20457;-67
2024/04/17 08:30:33;;;;;;;3.10;1.90;;;11.40;94.50;;;;;;5347377;26;21547;-67
2024/04/17 08:33:01;;;;;;;2.50;2.10;;;11.40;94.50;;;;;;5348017;26;20453;-67
2024/04/17 08:35:28;;;;;;;3.57;2.67;;;11.40;94.50;;;;;;5300334;26;20552;-68
2024/04/17 08:37:56;;;;;;;2.33;2.13;;;11.40;94.50;;;;;;5308749;26;20465;-67
2024/04/17 08:40:27;;;;;;;2.90;2.20;;;11.40;94.50;;;;;;5333313;26;20601;-67
2024/04/17 08:42:55;;;;;;;2.90;2.10;;;11.40;94.60;;;;;;5266667;26;20514;-66
2024/04/17 08:45:47;;;;;;;3.57;2.50;;;11.40;94.60;;;;;;5319636;26;20596;-67
2024/04/17 08:48:16;;;;;;;2.70;1.57;;;11.40;94.60;;;;;;5263932;26;20462;-67
2024/04/17 08:50:45;;;;;;;2.60;2.27;;;11.40;94.60;;;;;;5269280;26;20969;-66
2024/04/17 08:53:15;;;;;;;2.27;2.07;;;11.40;94.60;;;;;;5268827;26;20576;-67
2024/04/17 08:55:43;;;;;;;2.80;1.83;;;11.50;94.60;;;;;;5306043;26;20473;-67
2024/04/17 08:58:10;;;;;;;3.10;1.97;;;11.40;94.60;;;;;;5312985;26;20470;-66
2024/04/17 09:00:38;;;;;;;2.90;1.93;;;11.40;94.60;;;;;;5337814;26;20550;-66
2024/04/17 09:03:09;;;;;;;2.13;1.90;;;11.40;94.60;;;;;;5299663;26;20470;-67
2024/04/17 09:05:35;;;;;;;3.33;1.80;;;11.40;94.60;;;;;;5292924;26;20470;-66
2024/04/17 09:08:07;;;;;;;2.90;1.90;;;11.50;94.60;;;;;;5293026;26;20523;-67
2024/04/17 09:10:35;;;;;;;2.60;1.90;;;11.50;94.70;;;;;;5332240;26;20478;-66
2024/04/17 09:13:03;;;;;;;2.73;1.70;;;11.50;94.60;;;;;;5340973;26;21159;-67
2024/04/17 09:15:30;;;;;;;4.73;2.10;;;11.50;94.60;;;;;;5331268;26;20956;-67
2024/04/17 09:17:59;;;;;;;2.97;1.93;;;11.50;94.60;;;;;;5281765;26;20490;-67
2024/04/17 09:20:34;;;;;;;3.70;3.40;;;11.50;94.60;;;;;;5302102;26;20465;-67
2024/04/17 09:23:09;;;;;;;2.70;1.63;;;11.50;94.60;;;;;;5326324;26;20597;-66
2024/04/17 09:25:37;;;;;;;3.93;1.97;;;11.50;94.60;;;;;;5326604;26;20593;-66
2024/04/17 09:28:07;;;;;;;4.53;2.40;;;11.50;94.60;;;;;;5297428;26;20605;-67
2024/04/17 09:30:34;;;;;;;2.80;2.07;;;11.50;94.60;;;;;;5305009;26;20463;-66
2024/04/17 09:33:00;;;;;;;3.40;1.63;;;11.50;94.50;;;;;;5274271;26;20462;-66
2024/04/17 09:35:31;;;;;;;1.90;1.67;;;11.60;94.60;;;;;;5303063;26;20481;-67
2024/04/17 09:37:57;;;;;;;3.20;2.10;;;11.50;94.60;;;;;;5297163;26;20458;-67
2024/04/17 09:40:23;;;;;;;2.30;1.80;;;11.50;94.60;;;;;;5292311;26;20462;-67
2024/04/17 09:42:53;;;;;;;3.20;2.03;;;11.50;94.60;;;;;;5319081;26;20528;-67
2024/04/17 09:45:26;;;;;;;2.60;2.27;;;11.60;94.60;;;;;;5299776;26;20521;-67
2024/04/17 09:47:58;;;;;;;2.20;1.83;;;11.50;94.50;;;;;;5335429;26;20532;-67
2024/04/17 09:50:27;;;;;;;2.90;2.50;;;11.50;94.50;;;;;;5325187;26;20473;-67
2024/04/17 09:52:58;;;;;;;1.93;1.70;;;11.50;94.50;;;;;;5290443;27;20455;-69
2024/04/17 09:55:25;;;;;;;3.40;1.83;;;11.60;94.90;;;;;;5331026;26;20541;-69
2024/04/17 09:57:54;;;;;;;4.43;1.93;;;11.60;94.60;;;;;;5332451;26;21185;-67
2024/04/17 10:00:21;;;;;;;3.43;1.90;;;11.60;94.60;;;;;;5326162;21;20964;-39
2024/04/17 10:02:49;;;;;;;4.73;2.20;;;11.60;94.60;;;;;;5327267;26;20560;-39
2024/04/17 10:05:16;;;;;;;2.70;1.57;;;11.60;94.60;;;;;;5297550;26;20446;-40
2024/04/17 10:07:42;;;;;;;3.63;2.33;;;11.60;94.60;;;;;;5327908;26;20492;-39
2024/04/17 10:10:15;;;;;;;2.90;2.10;;;11.60;94.60;;;;;;5329534;26;21160;-41
2024/04/17 10:12:43;;;;;;;2.27;1.90;;;11.60;94.70;;;;;;5330342;26;20517;-40
2024/04/17 10:15:11;;;;;;;3.07;1.70;;;11.60;94.70;;;;;;5302922;26;20502;-41
2024/04/17 10:17:42;;;;;;;2.30;1.90;;;11.60;94.80;;;;;;5334496;26;20530;-41
2024/04/17 10:20:34;;;;;;;2.00;1.87;;;11.60;94.70;;;;;;5302767;26;20890;-39
2024/04/17 10:23:06;;;;;;;3.40;2.10;;;11.60;94.80;;;;;;5302898;26;20450;-41
2024/04/17 10:25:50;;;;;;;4.83;2.07;;;11.60;94.90;;;;;;5328526;26;21019;-41
2024/04/17 10:28:18;;;;;;;3.13;1.83;;;11.60;94.90;;;;;;5297325;26;20500;-40
2024/04/17 10:30:46;;;;;;;2.97;1.70;;;11.60;94.90;;;;;;5297019;26;20478;-40
2024/04/17 10:33:33;;;;;;;2.97;2.07;;;11.60;94.90;;;;;;5327165;26;21161;-41
2024/04/17 10:36:00;;;;;;;2.63;1.90;;;11.70;95.00;;;;;;5296732;26;20438;-40
2024/04/17 10:38:28;;;;;;;3.57;2.00;;;11.70;95.00;;;;;;5295756;26;20462;-41
2024/04/17 10:40:59;;;;;;;4.13;2.03;;;11.70;95.00;;;;;;5296188;26;20482;-41
2024/04/17 10:43:30;;;;;;;2.87;2.10;;;11.70;95.00;;;;;;5267434;26;20494;-40
2024/04/17 10:46:20;;;;;;;2.90;1.87;;;11.70;95.00;;;;;;5325505;26;20577;-41
2024/04/17 10:48:50;;;;;;;3.40;1.90;;;11.80;95.10;;;;;;5268828;26;20596;-39
2024/04/17 10:51:17;;;;;;;6.27;2.60;;;11.80;95.10;;;;;;5326419;26;20474;-39
2024/04/17 10:53:48;;;;;;;2.37;1.80;;;11.80;95.10;;;;;;5296189;26;20513;-41
2024/04/17 10:56:15;;;;;;;2.30;2.10;;;11.80;95.10;;;;;;5326935;26;20510;-40
2024/04/17 10:58:42;;;;;;;3.90;2.60;;;11.80;95.00;;;;;;5296785;26;20495;-40
2024/04/17 11:01:08;;;;;;;2.33;1.83;;;11.90;95.10;;;;;;5328721;26;20474;-40
2024/04/17 11:03:38;;;;;;;3.17;1.80;;;11.90;95.00;;;;;;5275119;26;20510;-41
2024/04/17 11:06:07;;;;;;;3.83;1.80;;;11.90;94.90;;;;;;5328021;26;20455;-41
2024/04/17 11:08:42;;;;;;;2.47;2.27;;;11.90;94.80;;;;;;5295323;26;20457;-38
2024/04/17 11:11:10;;;;;;;3.77;2.00;;;11.90;94.70;;;;;;5295663;26;21301;-40
2024/04/17 11:13:42;;;;;;;4.00;2.20;;;12.00;94.60;;;;;;5326674;26;20522;-39
2024/04/17 11:16:08;;;;;;;5.20;2.07;;;12.00;94.60;;;;;;5296099;26;20508;-39
2024/04/17 11:18:36;;;;;;;7.00;2.17;;;12.00;94.60;;;;;;5296199;26;20458;-41
2024/04/17 11:21:02;;;;;;;3.97;2.60;;;12.00;94.60;;;;;;5296009;26;20984;-41
2024/04/17 11:23:45;;;;;;;3.57;2.00;;;12.00;94.60;;;;;;5295839;26;21458;-40
2024/04/17 11:26:12;;;;;;;3.73;2.20;;;12.10;94.60;;;;;;5295584;26;20518;-38
2024/04/17 11:28:45;;;;;;;4.00;1.90;;;12.10;94.50;;;;;;5267010;26;20451;-36
2024/04/17 11:31:13;;;;;;;2.30;1.43;;;12.10;94.40;;;;;;5324707;26;21560;-39
2024/04/17 11:33:40;;;;;;;4.90;1.80;;;12.10;94.20;;;;;;5293892;26;20527;-39
2024/04/17 11:36:11;;;;;;;2.43;1.60;;;12.10;94.20;;;;;;5324344;26;20540;-39
2024/04/17 11:38:37;;;;;;;3.23;1.83;;;12.10;94.30;;;;;;5325120;26;20450;-38
2024/04/17 11:41:04;;;;;;;4.60;2.67;;;12.10;94.30;;;;;;5267347;26;20485;-38
2024/04/17 11:43:32;;;;;;;2.30;1.97;;;12.10;94.40;;;;;;5268382;26;20521;-41
2024/04/17 11:45:59;;;;;;;2.20;2.00;;;12.20;94.50;;;;;;5266512;26;20451;-38
2024/04/17 11:48:29;;;;;;;3.90;1.80;;;12.20;94.40;;;;;;5267454;26;20886;-41
2024/04/17 11:50:55;;;;;;;1.50;1.40;;;12.20;94.20;;;;;;5295403;26;20473;-40
2024/04/17 11:53:21;;;;;;;2.23;1.90;;;12.20;93.90;;;;;;5325818;26;20451;-39
2024/04/17 11:55:47;;;;;;;5.13;1.50;;;12.20;93.80;;;;;;5326184;26;20513;-38
2024/04/17 11:58:13;;;;;;;3.40;1.60;;;12.20;93.70;;;;;;5324975;26;20534;-40
2024/04/17 12:00:39;;;;;;;8.10;2.07;;;12.20;94.10;;;;;;5326849;26;20475;-40
2024/04/17 12:03:05;;;;;;;1.57;1.47;;;12.20;93.70;;;;;;5294780;26;20462;-38
2024/04/17 12:05:31;;;;;;;2.07;1.97;;;12.30;93.70;;;;;;5326052;26;20450;-41
2024/04/17 12:07:58;;;;;;;2.97;1.30;;;12.30;93.70;;;;;;5326139;26;20504;-40
2024/04/17 12:10:24;;;;;;;2.13;1.20;;;12.30;93.70;;;;;;5270779;26;20553;-40
2024/04/17 12:12:50;;;;;;;4.53;1.50;;;12.30;93.70;;;;;;5293683;26;20494;-41
2024/04/17 12:15:16;;;;;;;2.07;1.27;;;12.30;93.80;;;;;;5294874;26;20462;-40
2024/04/17 12:17:43;;;;;;;1.43;1.20;;;12.30;93.80;;;;;;5294837;26;20470;-40
2024/04/17 12:20:10;;;;;;;2.70;1.33;;;12.30;93.80;;;;;;5325463;26;20474;-39
2024/04/17 12:22:36;;;;;;;2.10;1.60;;;12.30;93.90;;;;;;5239478;26;20511;-41
2024/04/17 12:27:50;;;;;;;3.40;1.70;;;12.30;93.90;;;;;;5325374;26;20509;-40
2024/04/17 12:30:16;;;;;;;2.40;1.27;;;12.30;93.90;;;;;;5265884;26;20474;-40
2024/04/17 12:32:42;;;;;;;1.10;1.00;;;12.30;93.90;;;;;;5294567;26;20988;-38
2024/04/17 12:35:08;;;;;;;1.67;1.20;;;12.30;93.90;;;;;;5324963;26;21052;-39
2024/04/17 12:37:38;;;;;;;2.50;1.70;;;12.30;93.90;;;;;;5324581;26;20589;-40
2024/04/17 12:40:07;;;;;;;2.00;1.70;;;12.30;93.90;;;;;;5266684;26;20491;-40
2024/04/17 12:42:34;;;;;;;1.93;1.53;;;12.30;93.90;;;;;;5324553;26;20451;-39
2024/04/17 12:45:02;;;;;;;1.60;1.50;;;12.30;93.90;;;;;;5324174;26;21032;-39
2024/04/17 12:47:30;;;;;;;2.07;1.53;;;12.30;93.80;;;;;;5325225;26;21374;-40
2024/04/17 12:49:59;;;;;;;4.77;1.60;;;12.30;93.70;;;;;;5293793;26;20446;-39